createdAt,value
2018-05-21T00:01:00.367Z,12.63
2018-05-21T00:03:28.984Z,12.50
2018-05-21T00:05:57.518Z,12.41
2018-05-21T00:08:26.053Z,12.32
2018-05-21T00:10:54.683Z,12.34
2018-05-21T00:13:23.208Z,12.42
2018-05-21T00:15:51.742Z,12.48
2018-05-21T00:18:20.269Z,12.46
2018-05-21T00:20:48.801Z,12.51
2018-05-21T00:23:17.339Z,12.54
2018-05-21T00:25:45.848Z,12.43
2018-05-21T00:28:14.384Z,12.37
2018-05-21T00:30:42.913Z,12.40
2018-05-21T00:33:11.441Z,12.28
2018-05-21T00:35:40.173Z,12.15
2018-05-21T00:38:08.701Z,12.00
2018-05-21T00:40:37.229Z,11.92
2018-05-21T00:43:05.758Z,11.95
2018-05-21T00:45:34.319Z,11.92
2018-05-21T00:48:02.834Z,11.88
2018-05-21T00:50:31.481Z,11.77
2018-05-21T00:53:00.004Z,11.74
2018-05-21T00:55:37.456Z,11.69
2018-05-21T00:58:06.138Z,11.65
2018-05-21T01:00:34.656Z,11.65
2018-05-21T01:03:03.197Z,11.65
2018-05-21T01:05:31.762Z,11.58
2018-05-21T01:08:00.322Z,11.51
2018-05-21T01:10:28.879Z,11.48
2018-05-21T01:12:57.421Z,11.41
2018-05-21T01:15:25.963Z,11.28
2018-05-21T01:17:54.489Z,11.17
2018-05-21T01:20:23.108Z,11.10
2018-05-21T01:22:51.630Z,11.00
2018-05-21T01:25:20.205Z,10.93
2018-05-21T01:27:48.692Z,10.83
2018-05-21T01:30:17.227Z,10.74
2018-05-21T01:32:45.791Z,10.65
2018-05-21T01:35:14.322Z,10.54
2018-05-21T01:37:42.842Z,10.46
2018-05-21T01:40:11.373Z,10.36
2018-05-21T01:42:39.899Z,10.24
2018-05-21T01:45:09.629Z,10.21
2018-05-21T01:47:38.163Z,10.10
2018-05-21T01:50:06.689Z,10.01
2018-05-21T01:52:35.336Z,9.92
2018-05-21T01:55:03.856Z,9.86
2018-05-21T01:57:32.368Z,9.79
2018-05-21T02:00:00.949Z,9.74
2018-05-21T02:02:29.475Z,9.69
2018-05-21T02:04:57.984Z,9.59
2018-05-21T02:07:26.656Z,9.60
2018-05-21T02:09:55.174Z,9.57
2018-05-21T02:12:23.696Z,9.50
2018-05-21T02:14:52.288Z,9.44
2018-05-21T02:17:20.808Z,9.44
2018-05-21T02:19:49.324Z,9.42
2018-05-21T02:22:17.842Z,9.35
2018-05-21T02:24:46.362Z,9.29
2018-05-21T02:27:14.898Z,9.21
2018-05-21T02:29:43.411Z,9.14
2018-05-21T02:32:11.940Z,9.04
2018-05-21T02:34:40.470Z,8.91
2018-05-21T02:37:08.982Z,8.83
2018-05-21T02:39:37.841Z,8.78
2018-05-21T02:42:06.365Z,8.76
2018-05-21T02:44:34.888Z,8.70
2018-05-21T02:47:03.495Z,8.67
2018-05-21T02:49:32.031Z,8.65
2018-05-21T02:52:00.573Z,8.66
2018-05-21T02:54:29.193Z,8.62
2018-05-21T02:56:57.700Z,8.48
2018-05-21T02:59:26.224Z,8.43
2018-05-21T03:01:54.770Z,8.32
2018-05-21T03:04:23.285Z,8.33
2018-05-21T03:06:51.807Z,8.30
2018-05-21T03:09:20.433Z,8.18
2018-05-21T03:11:48.956Z,8.09
2018-05-21T03:14:17.469Z,8.03
2018-05-21T03:16:46.008Z,7.99
2018-05-21T03:19:14.532Z,7.96
2018-05-21T03:21:43.047Z,7.94
2018-05-21T03:24:11.841Z,8.05
2018-05-21T03:26:40.348Z,7.96
2018-05-21T03:29:08.878Z,7.85
2018-05-21T03:31:37.492Z,7.85
2018-05-21T03:34:06.054Z,7.82
2018-05-21T03:36:34.572Z,7.77
2018-05-21T03:39:03.084Z,7.75
2018-05-21T03:41:31.595Z,7.75
2018-05-21T03:44:00.130Z,7.72
2018-05-21T03:46:28.642Z,7.73
2018-05-21T03:48:57.164Z,7.76
2018-05-21T03:51:25.717Z,7.78
2018-05-21T03:53:54.243Z,7.83
2018-05-21T03:56:22.764Z,7.88
2018-05-21T03:59:02.985Z,7.94
2018-05-21T04:04:49.565Z,8.05
2018-05-21T04:07:18.264Z,8.13
2018-05-21T04:09:46.793Z,8.18
2018-05-21T04:12:16.294Z,8.16
2018-05-21T04:14:45.193Z,8.15
2018-05-21T04:17:13.713Z,8.15
2018-05-21T04:19:42.217Z,8.19
2018-05-21T04:22:10.757Z,8.30
2018-05-21T04:24:39.269Z,8.34
2018-05-21T04:27:08.499Z,8.44
2018-05-21T04:29:37.024Z,8.47
2018-05-21T04:32:05.562Z,8.55
2018-05-21T04:34:34.107Z,8.60
2018-05-21T04:37:02.613Z,8.71
2018-05-21T04:39:31.120Z,8.85
2018-05-21T04:41:59.641Z,8.90
2018-05-21T04:44:28.921Z,8.95
2018-05-21T04:46:57.515Z,9.06
2018-05-21T04:49:26.552Z,9.20
2018-05-21T04:51:55.061Z,9.29
2018-05-21T04:54:23.568Z,9.49
2018-05-21T04:56:52.088Z,9.60
2018-05-21T04:59:20.613Z,9.68
2018-05-21T05:01:50.091Z,9.80
2018-05-21T05:04:18.600Z,9.83
2018-05-21T05:06:47.126Z,9.88
2018-05-21T05:09:15.653Z,9.98
2018-05-21T05:11:44.168Z,10.18
2018-05-21T05:14:12.709Z,10.26
2018-05-21T05:16:42.123Z,10.37
2018-05-21T05:19:11.729Z,10.44
2018-05-21T05:21:40.316Z,10.55
2018-05-21T05:24:09.284Z,10.73
2018-05-21T05:26:37.942Z,10.92
2018-05-21T05:29:06.368Z,11.05
2018-05-21T05:31:34.909Z,11.18
2018-05-21T05:34:03.437Z,11.30
2018-05-21T05:36:31.988Z,11.44
2018-05-21T05:39:00.517Z,11.55
2018-05-21T05:41:29.485Z,11.69
2018-05-21T05:43:58.048Z,11.82
2018-05-21T05:46:26.568Z,12.00
2018-05-21T05:48:55.157Z,12.17
2018-05-21T05:51:24.165Z,12.39
2018-05-21T05:53:52.673Z,12.51
2018-05-21T05:56:22.081Z,12.62
2018-05-21T05:58:50.576Z,12.76
2018-05-21T06:01:19.689Z,12.83
2018-05-21T06:03:48.204Z,12.99
2018-05-21T06:06:17.027Z,13.06
2018-05-21T06:08:45.561Z,13.24
2018-05-21T06:11:14.097Z,13.40
2018-05-21T06:13:42.633Z,13.50
2018-05-21T06:16:11.159Z,13.54
2018-05-21T06:18:39.705Z,13.56
2018-05-21T06:21:08.942Z,13.77
2018-05-21T06:23:37.464Z,13.87
2018-05-21T06:26:06.540Z,13.98
2018-05-21T06:28:35.081Z,14.08
2018-05-21T06:31:04.056Z,14.17
2018-05-21T06:33:32.593Z,14.27
2018-05-21T06:36:01.506Z,14.39
2018-05-21T06:38:30.039Z,14.50
2018-05-21T06:40:58.575Z,14.57
2018-05-21T06:43:27.102Z,14.62
2018-05-21T06:45:55.638Z,14.74
2018-05-21T06:48:24.148Z,14.84
2018-05-21T06:50:52.949Z,15.02
2018-05-21T06:53:21.509Z,15.15
2018-05-21T06:55:50.176Z,15.30
2018-05-21T06:58:18.684Z,15.40
2018-05-21T07:00:47.205Z,15.39
2018-05-21T07:03:15.728Z,15.49
2018-05-21T07:05:45.429Z,15.58
2018-05-21T07:08:13.923Z,15.71
2018-05-21T07:10:43.951Z,15.82
2018-05-21T07:13:12.485Z,15.95
2018-05-21T07:15:41.637Z,16.03
2018-05-21T07:18:10.209Z,16.13
2018-05-21T07:20:39.277Z,16.32
2018-05-21T07:23:07.816Z,16.43
2018-05-21T07:25:36.984Z,16.54
2018-05-21T07:28:05.524Z,16.66
2018-05-21T07:30:34.057Z,16.78
2018-05-21T07:33:02.601Z,16.92
2018-05-21T07:35:31.490Z,17.07
2018-05-21T07:38:00.006Z,17.24
2018-05-21T07:40:28.533Z,17.32
2018-05-21T07:42:57.049Z,17.41
2018-05-21T07:45:25.585Z,17.51
2018-05-21T07:47:54.509Z,17.56
2018-05-21T07:50:23.035Z,17.69
2018-05-21T07:52:51.565Z,17.80
2018-05-21T07:55:20.085Z,17.86
2018-05-21T07:57:48.845Z,17.85
2018-05-21T08:00:17.373Z,17.98
2018-05-21T08:02:46.517Z,18.06
2018-05-21T08:05:15.070Z,18.28
2018-05-21T08:07:44.436Z,18.47
2018-05-21T08:10:12.951Z,18.48
2018-05-21T08:12:42.366Z,18.26
2018-05-21T08:15:10.876Z,18.57
2018-05-21T08:17:40.493Z,18.80
2018-05-21T08:20:09.023Z,19.05
2018-05-21T08:22:37.997Z,18.87
2018-05-21T08:25:06.549Z,19.12
2018-05-21T08:27:35.749Z,19.36
2018-05-21T08:30:04.276Z,19.52
2018-05-21T08:32:33.232Z,19.54
2018-05-21T08:35:01.769Z,19.87
2018-05-21T08:37:30.812Z,20.02
2018-05-21T08:39:59.451Z,20.26
2018-05-21T08:42:28.273Z,20.48
2018-05-21T08:44:57.453Z,20.30
2018-05-21T08:47:26.032Z,20.53
2018-05-21T08:49:55.128Z,20.74
2018-05-21T08:52:23.683Z,20.92
2018-05-21T08:54:52.861Z,20.93
2018-05-21T08:57:22.357Z,21.03
2018-05-21T08:59:51.699Z,20.99
2018-05-21T09:02:20.220Z,20.98
2018-05-21T09:04:48.831Z,21.21
2018-05-21T09:07:17.285Z,21.53
2018-05-21T09:09:46.613Z,21.93
2018-05-21T09:12:15.208Z,22.23
2018-05-21T09:14:44.706Z,22.77
2018-05-21T09:17:13.228Z,23.55
2018-05-21T09:19:42.601Z,24.14
2018-05-21T09:22:11.130Z,25.64
2018-05-21T09:24:40.063Z,27.30
2018-05-21T09:27:08.577Z,28.04
2018-05-21T09:29:38.219Z,29.57
2018-05-21T09:32:06.717Z,30.15
2018-05-21T09:34:36.289Z,31.06
2018-05-21T09:37:04.829Z,31.16
2018-05-21T09:39:34.005Z,31.25
2018-05-21T09:42:02.610Z,31.75
2018-05-21T09:44:31.055Z,31.41
2018-05-21T09:46:59.627Z,31.96
2018-05-21T09:49:28.140Z,33.15
2018-05-21T09:51:57.302Z,34.16
2018-05-21T09:54:25.833Z,33.20
2018-05-21T09:56:54.618Z,32.14
2018-05-21T09:59:23.176Z,34.26
2018-05-21T10:01:51.697Z,34.90
2018-05-21T10:04:20.238Z,35.57
2018-05-21T10:06:48.764Z,36.00
2018-05-21T10:09:17.789Z,35.55
2018-05-21T10:11:46.457Z,36.10
2018-05-21T10:14:15.844Z,36.37
2018-05-21T10:16:44.381Z,34.25
2018-05-21T10:19:13.584Z,35.48
2018-05-21T10:21:42.138Z,35.98
2018-05-21T10:24:12.213Z,35.86
2018-05-21T10:26:40.747Z,36.39
2018-05-21T10:29:09.680Z,36.94
2018-05-21T10:31:38.215Z,37.44
2018-05-21T10:34:06.888Z,36.86
2018-05-21T10:36:35.430Z,36.89
2018-05-21T10:39:03.956Z,36.79
2018-05-21T10:41:32.493Z,38.04
2018-05-21T10:44:01.017Z,37.17
2018-05-21T10:46:30.775Z,36.84
2018-05-21T10:48:59.275Z,37.08
2018-05-21T10:51:28.305Z,37.89
2018-05-21T10:53:56.822Z,37.53
2018-05-21T10:56:25.475Z,37.66
2018-05-21T10:58:53.988Z,37.45
2018-05-21T11:01:22.613Z,37.06
2018-05-21T11:03:51.168Z,37.54
2018-05-21T11:06:20.263Z,38.56
2018-05-21T11:08:48.807Z,38.50
2018-05-21T11:11:18.084Z,38.70
2018-05-21T11:13:46.613Z,37.11
2018-05-21T11:16:15.144Z,37.37
2018-05-21T11:18:43.665Z,38.42
2018-05-21T11:21:12.288Z,38.76
2018-05-21T11:23:41.642Z,39.59
2018-05-21T11:26:10.165Z,38.79
2018-05-21T11:28:39.551Z,38.96
2018-05-21T11:31:08.096Z,39.44
2018-05-21T11:33:36.909Z,39.76
2018-05-21T11:36:05.441Z,40.43
2018-05-21T11:38:34.467Z,41.47
2018-05-21T11:41:02.998Z,40.43
2018-05-21T11:43:31.921Z,41.29
2018-05-21T11:46:00.465Z,42.07
2018-05-21T11:48:28.977Z,40.49
2018-05-21T11:50:57.506Z,41.50
2018-05-21T11:53:26.040Z,41.36
2018-05-21T11:55:54.600Z,41.46
2018-05-21T11:58:23.096Z,41.52
2018-05-21T12:00:51.805Z,41.95
2018-05-21T12:03:20.309Z,41.95
2018-05-21T12:05:49.368Z,41.15
2018-05-21T12:08:17.877Z,42.34
2018-05-21T12:10:46.938Z,41.78
2018-05-21T12:13:15.458Z,42.24
2018-05-21T12:15:44.484Z,42.19
2018-05-21T12:18:13.020Z,41.96
2018-05-21T12:20:41.556Z,41.80
2018-05-21T12:23:10.077Z,42.45
2018-05-21T12:25:38.621Z,41.55
2018-05-21T12:28:07.145Z,41.56
2018-05-21T12:30:35.680Z,42.71
2018-05-21T12:33:06.086Z,42.34
2018-05-21T12:35:34.616Z,41.14
2018-05-21T12:38:03.740Z,41.59
2018-05-21T12:40:32.278Z,41.97
2018-05-21T12:43:00.804Z,41.53
2018-05-21T12:45:29.330Z,40.70
2018-05-21T12:47:58.671Z,40.87
2018-05-21T12:50:27.197Z,41.03
2018-05-21T12:52:55.729Z,39.97
2018-05-21T12:55:24.641Z,38.59
2018-05-21T12:57:53.153Z,38.73
2018-05-21T13:00:22.599Z,39.96
2018-05-21T13:02:51.092Z,40.88
2018-05-21T13:05:20.129Z,40.98
2018-05-21T13:07:48.624Z,42.37
2018-05-21T13:10:17.156Z,41.80
2018-05-21T13:12:45.676Z,42.38
2018-05-21T13:15:14.207Z,41.65
2018-05-21T13:17:42.720Z,42.80
2018-05-21T13:20:11.252Z,42.09
2018-05-21T13:22:39.933Z,42.37
2018-05-21T13:25:08.436Z,42.12
2018-05-21T13:27:37.319Z,43.09
2018-05-21T13:30:05.845Z,42.62
2018-05-21T13:32:34.793Z,40.59
2018-05-21T13:35:03.330Z,39.80
2018-05-21T13:37:31.997Z,41.25
2018-05-21T13:40:00.533Z,41.92
2018-05-21T13:42:29.070Z,42.84
2018-05-21T13:44:57.609Z,42.12
2018-05-21T13:47:26.148Z,42.07
2018-05-21T13:49:54.729Z,42.39
2018-05-21T13:52:23.375Z,42.10
2018-05-21T13:54:55.441Z,42.86
2018-05-21T13:57:26.807Z,43.26
2018-05-21T13:59:55.358Z,42.47
2018-05-21T14:02:24.353Z,41.87
2018-05-21T14:04:52.881Z,40.80
2018-05-21T14:07:21.413Z,42.11
2018-05-21T14:09:49.949Z,43.15
2018-05-21T14:12:18.481Z,42.68
2018-05-21T14:14:47.011Z,41.99
2018-05-21T14:17:15.579Z,40.11
2018-05-21T14:19:45.381Z,41.04
2018-05-21T14:22:13.956Z,39.75
2018-05-21T14:24:42.644Z,42.12
2018-05-21T14:27:11.177Z,42.96
2018-05-21T14:29:39.908Z,44.65
2018-05-21T14:32:08.416Z,43.88
2018-05-21T14:34:37.253Z,43.53
2018-05-21T14:37:05.892Z,41.81
2018-05-21T14:39:34.459Z,41.97
2018-05-21T14:42:02.993Z,43.43
2018-05-21T14:44:31.531Z,42.17
2018-05-21T14:47:00.057Z,42.77
2018-05-21T14:49:28.579Z,43.00
2018-05-21T14:51:57.104Z,42.74
2018-05-21T14:54:25.635Z,41.95
2018-05-21T14:56:54.156Z,42.22
2018-05-21T14:59:22.708Z,42.63
2018-05-21T15:01:51.297Z,42.75
2018-05-21T15:04:19.811Z,43.77
2018-05-21T15:06:49.545Z,44.37
2018-05-21T15:09:18.053Z,43.51
2018-05-21T15:11:47.117Z,41.21
2018-05-21T15:14:15.649Z,39.48
2018-05-21T15:16:44.274Z,41.14
2018-05-21T15:19:12.794Z,42.18
2018-05-21T15:21:41.809Z,43.84
2018-05-21T15:24:10.341Z,41.07
2018-05-21T15:26:39.120Z,36.66
2018-05-21T15:29:07.641Z,35.49
2018-05-21T15:31:36.174Z,31.79
2018-05-21T15:34:04.700Z,31.19
2018-05-21T15:36:33.338Z,29.93
2018-05-21T15:39:01.878Z,25.03
2018-05-21T15:41:30.402Z,23.40
2018-05-21T15:43:58.937Z,22.30
2018-05-21T15:46:28.374Z,22.02
2018-05-21T15:48:56.910Z,21.36
2018-05-21T15:51:25.443Z,21.00
2018-05-21T15:53:54.486Z,20.81
2018-05-21T15:56:23.080Z,20.72
2018-05-21T15:58:52.357Z,20.51
2018-05-21T16:01:20.925Z,20.44
2018-05-21T16:03:49.845Z,21.18
2018-05-21T16:06:18.408Z,22.39
2018-05-21T16:08:47.443Z,22.82
2018-05-21T16:11:16.010Z,24.73
2018-05-21T16:13:45.286Z,26.32
2018-05-21T16:16:13.812Z,25.53
2018-05-21T16:18:42.691Z,24.27
2018-05-21T16:21:11.220Z,22.75
2018-05-21T16:23:40.266Z,21.42
2018-05-21T16:26:08.792Z,20.36
2018-05-21T16:28:37.322Z,19.76
2018-05-21T16:31:05.852Z,19.38
2018-05-21T16:33:34.937Z,18.81
2018-05-21T16:36:03.460Z,18.51
2018-05-21T16:38:32.778Z,18.10
2018-05-21T16:41:01.309Z,17.61
2018-05-21T16:43:30.161Z,17.65
2018-05-21T16:45:58.689Z,17.85
2018-05-21T16:48:27.696Z,18.00
2018-05-21T16:50:56.221Z,18.36
2018-05-21T16:53:25.210Z,18.92
2018-05-21T16:55:53.738Z,19.46
2018-05-21T16:58:22.264Z,19.31
2018-05-21T17:00:50.807Z,19.10
2018-05-21T17:03:19.337Z,18.54
2018-05-21T17:05:47.857Z,18.38
2018-05-21T17:08:16.404Z,18.20
2018-05-21T17:10:45.099Z,17.94
2018-05-21T17:13:13.613Z,17.86
2018-05-21T17:15:42.588Z,17.93
2018-05-21T17:18:11.103Z,18.01
2018-05-21T17:20:40.347Z,18.37
2018-05-21T17:23:08.867Z,18.58
2018-05-21T17:25:37.782Z,18.63
2018-05-21T17:28:06.406Z,18.60
2018-05-21T17:30:34.952Z,18.57
2018-05-21T17:33:03.505Z,18.61
2018-05-21T17:35:32.112Z,18.53
2018-05-21T17:38:00.620Z,18.36
2018-05-21T17:40:29.157Z,18.30
2018-05-21T17:42:58.300Z,18.28
2018-05-21T17:45:26.830Z,18.23
2018-05-21T17:47:55.369Z,17.99
2018-05-21T17:50:24.023Z,17.66
2018-05-21T17:52:52.638Z,17.49
2018-05-21T17:55:21.220Z,17.56
2018-05-21T17:57:49.745Z,17.52
2018-05-21T18:00:18.329Z,17.43
2018-05-21T18:02:47.298Z,17.28
2018-05-21T18:05:15.834Z,17.26
2018-05-21T18:07:44.386Z,17.08
2018-05-21T18:10:13.309Z,17.02
2018-05-21T18:12:41.854Z,16.93
2018-05-21T18:15:10.374Z,16.79
2018-05-21T18:17:39.160Z,16.61
2018-05-21T18:20:07.687Z,16.46
2018-05-21T18:22:36.216Z,16.37
2018-05-21T18:25:05.348Z,16.28
2018-05-21T18:27:33.837Z,16.12
2018-05-21T18:30:02.388Z,16.03
2018-05-21T18:32:31.054Z,15.97
2018-05-21T18:34:59.558Z,15.92
2018-05-21T18:37:28.095Z,15.82
2018-05-21T18:39:56.629Z,15.74
2018-05-21T18:42:25.260Z,15.66
2018-05-21T18:44:53.908Z,15.60
2018-05-21T18:47:22.418Z,15.52
2018-05-21T18:49:50.949Z,15.53
2018-05-21T18:52:19.590Z,15.51
2018-05-21T18:54:48.143Z,15.46
2018-05-21T18:57:16.680Z,15.37
2018-05-21T18:59:45.347Z,15.28
2018-05-21T19:02:13.891Z,15.15
2018-05-21T19:04:42.417Z,15.10
2018-05-21T19:07:11.125Z,14.88
2018-05-21T19:09:39.657Z,14.81
2018-05-21T19:12:08.196Z,14.66
2018-05-21T19:14:36.962Z,14.60
2018-05-21T19:17:05.530Z,14.51
2018-05-21T19:19:34.069Z,14.47
2018-05-21T19:22:02.744Z,14.41
2018-05-21T19:24:31.319Z,14.36
2018-05-21T19:27:00.801Z,14.28
2018-05-21T19:29:29.316Z,14.23
2018-05-21T19:31:58.348Z,14.23
2018-05-21T19:34:26.898Z,14.21
2018-05-21T19:36:55.434Z,14.19
2018-05-21T19:39:24.232Z,14.05
2018-05-21T19:41:52.787Z,13.88
2018-05-21T19:44:21.312Z,13.79
2018-05-21T19:46:49.878Z,13.76
2018-05-21T19:49:18.413Z,13.70
2018-05-21T19:51:46.934Z,13.63
2018-05-21T19:54:15.823Z,13.61
2018-05-21T19:56:44.351Z,13.62
2018-05-21T19:59:12.889Z,13.58
2018-05-21T20:01:41.594Z,13.55
2018-05-21T20:04:10.119Z,13.55
2018-05-21T20:06:38.648Z,13.54
2018-05-21T20:09:07.189Z,13.53
2018-05-21T20:11:35.729Z,13.52
2018-05-21T20:14:04.292Z,13.49
2018-05-21T20:16:32.816Z,13.41
2018-05-21T20:19:01.359Z,13.34
2018-05-21T20:21:29.889Z,13.24
2018-05-21T20:23:58.433Z,13.17
2018-05-21T20:26:27.149Z,13.15
2018-05-21T20:28:55.994Z,13.18
2018-05-21T20:31:24.557Z,13.10
2018-05-21T20:33:53.069Z,13.03
2018-05-21T20:36:21.602Z,13.00
2018-05-21T20:38:50.164Z,12.95
2018-05-21T20:41:18.805Z,12.91
2018-05-21T20:43:47.349Z,12.85
2018-05-21T20:46:15.876Z,12.84
2018-05-21T20:48:44.404Z,12.85
2018-05-21T20:51:12.944Z,12.81
2018-05-21T20:53:41.476Z,12.86
2018-05-21T20:56:10.014Z,12.87
2018-05-21T20:58:38.557Z,12.89
2018-05-21T21:01:07.093Z,12.90
2018-05-21T21:03:35.630Z,12.86
2018-05-21T21:06:05.314Z,12.85
2018-05-21T21:08:33.826Z,12.81
2018-05-21T21:11:02.361Z,12.73
2018-05-21T21:13:31.017Z,12.60
2018-05-21T21:15:59.565Z,12.52
2018-05-21T21:18:28.118Z,12.45
2018-05-21T21:20:56.696Z,12.39
2018-05-21T21:23:25.336Z,12.37
2018-05-21T21:25:53.796Z,12.38
2018-05-21T21:28:22.457Z,12.31
2018-05-21T21:30:51.090Z,12.25
2018-05-21T21:33:19.628Z,12.18
2018-05-21T21:35:48.132Z,12.16
2018-05-21T21:38:16.847Z,12.16
2018-05-21T21:40:45.454Z,12.15
2018-05-21T21:43:13.981Z,12.09
2018-05-21T21:45:42.528Z,12.02
2018-05-21T21:48:11.116Z,11.97
2018-05-21T21:50:39.601Z,11.93
2018-05-21T21:53:08.235Z,11.88
2018-05-21T21:55:43.556Z,11.89
2018-05-21T21:58:12.700Z,11.93
2018-05-21T22:00:41.243Z,12.00
2018-05-21T22:03:09.768Z,11.99
2018-05-21T22:05:38.299Z,12.03
2018-05-21T22:08:06.836Z,11.91
2018-05-21T22:10:35.381Z,11.82
2018-05-21T22:13:03.953Z,11.72
2018-05-21T22:15:32.464Z,11.70
2018-05-21T22:18:01.001Z,11.69
2018-05-21T22:20:29.537Z,11.67
2018-05-21T22:22:58.076Z,11.62
2018-05-21T22:25:26.609Z,11.55
2018-05-21T22:27:55.145Z,11.47
2018-05-21T22:30:23.684Z,11.42
2018-05-21T22:32:52.215Z,11.45
2018-05-21T22:35:20.807Z,11.42
2018-05-21T22:37:49.337Z,11.35
2018-05-21T22:40:17.864Z,11.36
2018-05-21T22:42:47.468Z,11.33
2018-05-21T22:45:16.237Z,11.27
2018-05-21T22:47:44.801Z,11.22
2018-05-21T22:50:13.357Z,11.19
2018-05-21T22:52:42.020Z,11.18
2018-05-21T22:55:15.120Z,11.15
2018-05-21T22:57:43.668Z,11.15
2018-05-21T23:00:13.101Z,11.15
2018-05-21T23:02:41.710Z,11.18
2018-05-21T23:05:10.331Z,11.18
2018-05-21T23:07:38.861Z,11.18
2018-05-21T23:10:07.388Z,11.16
2018-05-21T23:12:35.909Z,11.18
2018-05-21T23:15:04.448Z,11.09
2018-05-21T23:17:33.233Z,11.04
2018-05-21T23:20:01.784Z,11.00
2018-05-21T23:22:51.086Z,10.97
2018-05-21T23:25:19.830Z,10.97
2018-05-21T23:27:48.381Z,10.97
2018-05-21T23:30:16.898Z,11.00
2018-05-21T23:32:45.517Z,11.00
2018-05-21T23:35:13.980Z,10.96
2018-05-21T23:37:42.509Z,10.99
2018-05-21T23:40:11.054Z,11.02
2018-05-21T23:42:39.721Z,11.07
2018-05-21T23:45:08.230Z,10.85
2018-05-21T23:47:36.768Z,10.71
2018-05-21T23:50:05.495Z,10.67
2018-05-21T23:52:34.008Z,10.63
2018-05-21T23:55:02.525Z,10.60
2018-05-21T23:57:31.567Z,10.59
